Flight Track Log - Related Links

Times and Time Zones

All times are in EST time to prevent confusion due to time zone crossing. See the N559LC flight status page for this flight to view local times or setup timezone preferences in your user account.

Time Position Orientation Groundspeed Altitude Reporting Facility
EST Latitude Longitude Course Direction KTS MPH feet Rate Location/Type
Sat 05:17:07 PM 42.2231 -83.3386 North 147 169 1,700  Level Cleveland Center
Sat 05:17:55 PM 42.2608 -83.3353 North 187 215 4,600 2,954 Climbing Cleveland Center
Sat 05:18:12 PM 42.2681 -83.3350 North 177 204 4,900 3,639 Climbing Cleveland Center
Sat 05:18:56 PM 42.3086 -83.3675 329° Northwest 226 260 8,300 4,131 Climbing Cleveland Center
Sat 05:19:13 PM 42.3094 -83.3817 275° West 227 261 9,100 3,000 Climbing Cleveland Center
Sat 05:20:14 PM 42.2917 -83.4811 256° West 265 305 12,200 3,463 Climbing Cleveland Center
Sat 05:21:16 PM 42.2103 -83.5711 219° Southwest 354 407 16,200 3,220 Climbing Cleveland Center
Sat 05:22:17 PM 42.1233 -83.6067 197° South 368 423 18,800 2,852 Climbing Cleveland Center
Sat 05:23:18 PM 42.0214 -83.6497 197° South 381 438 22,000 3,366 Climbing Cleveland Center
Sat 05:24:20 PM 41.8947 -83.7017 197° South 397 457 25,700 2,829 Climbing Cleveland Center
Sat 05:25:21 PM 41.7911 -83.7517 200° South 396 456 27,800 2,410 Climbing Cleveland Center
Sat 05:26:22 PM 41.7131 -83.8392 220° Southwest 367 422 30,600 2,195 Climbing Cleveland Center
Sat 05:27:24 PM 41.6567 -83.9394 233° Southwest 341 392 32,300 1,463 Climbing Cleveland Center
Sat 05:28:25 PM 41.5981 -84.0422 233° Southwest 346 398 33,600 1,487 Climbing Cleveland Center
Sat 05:29:21 PM 41.5403 -84.1419 232° Southwest 357 411 35,200 1,322 Climbing Chicago Center
Sat 05:30:23 PM 41.4797 -84.2489 233° Southwest 361 415 36,200 976 Climbing Chicago Center
Sat 05:31:24 PM 41.4186 -84.3567 233° Southwest 364 419 37,200 1,268 Climbing Chicago Center
Sat 05:32:26 PM 41.3553 -84.4642 232° Southwest 368 423 38,800 1,659 Climbing Chicago Center
Sat 05:33:27 PM 41.2975 -84.5619 232° Southwest 345 397 40,600 1,317 Climbing Chicago Center
Sat 05:34:29 PM 41.2306 -84.6781 233° Southwest 330 380 41,500 677 Climbing Chicago Center
Sat 05:35:31 PM 41.1722 -84.7772 232° Southwest 337 388 42,000 488 Climbing Chicago Center
Sat 05:36:32 PM 41.1128 -84.8792 232° Southwest 345 397 42,500 488 Climbing Chicago Center
Sat 05:37:34 PM 41.0533 -84.9781 231° Southwest 344 396 43,000 244 Climbing Chicago Center
Sat 05:38:35 PM 40.9928 -85.0814 232° Southwest 349 402 43,000  Level Chicago Center
Sat 05:39:37 PM 40.9306 -85.1867 232° Southwest 356 410 43,000  Level Chicago Center
Sat 05:40:38 PM 40.8664 -85.2933 232° Southwest 362 417 43,000  Level Chicago Center
Sat 05:41:40 PM 40.8003 -85.4031 232° Southwest 373 429 43,000  Level Chicago Center
Sat 05:42:41 PM 40.7342 -85.5142 232° Southwest 382 440 43,000  Level Chicago Center
Sat 05:43:43 PM 40.6550 -85.6469 232° Southwest 390 449 43,000  Level Chicago Center
Sat 05:44:45 PM 40.5869 -85.7594 231° Southwest 393 452 43,000  Level Chicago Center
Sat 05:45:46 PM 40.5203 -85.8706 232° Southwest 391 450 43,000  Level Chicago Center
Sat 05:46:48 PM 40.4525 -85.9800 231° Southwest 389 448 43,000  Level Chicago Center
Sat 05:47:49 PM 40.3864 -86.0886 231° Southwest 385 443 43,000  Level Chicago Center
Sat 05:48:51 PM 40.3217 -86.1953 232° Southwest 379 436 43,000  Level Chicago Center
Sat 05:49:53 PM 40.2647 -86.3364 242° Southwest 368 423 43,000  Level Chicago Center
Sat 05:50:54 PM 40.2153 -86.4561 242° Southwest 375 432 43,000 98 Level Chicago Center
Sat 05:51:56 PM 40.1458 -86.5628 230° Southwest 387 445 43,200 488 Climbing Chicago Center
Sat 05:52:57 PM 40.0778 -86.6700 230° Southwest 387 445 44,000 585 Climbing Chicago Center
Sat 05:53:59 PM 40.0119 -86.7744 231° Southwest 380 437 44,400 484 Climbing Chicago Center
Sat 05:55:01 PM 39.9336 -86.8978 230° Southwest 372 428 45,000 290 Climbing Chicago Center
Sat 05:56:03 PM 39.8681 -86.9986 230° Southwest 368 423 45,000  Level Chicago Center
Sat 05:57:04 PM 39.8031 -87.1003 230° Southwest 368 423 45,000  Level Chicago Center
Sat 05:58:06 PM 39.7381 -87.2003 230° Southwest 366 421 45,000  Level Chicago Center
Sat 05:59:08 PM 39.6722 -87.3008 230° Southwest 366 421 45,000  Level Chicago Center
Sat 06:00:09 PM 39.6067 -87.4008 230° Southwest 366 421 45,000  Level Chicago Center
Sat 06:01:11 PM 39.5419 -87.5017 230° Southwest 367 422 45,000  Level Chicago Center
Sat 06:02:19 PM 39.4611 -87.6228 229° Southwest 370 426 45,000  Level Indianapolis Center
Sat 06:03:20 PM 39.3947 -87.7236 230° Southwest 370 426 45,000  Level Indianapolis Center
Sat 06:04:21 PM 39.3153 -87.8442 230° Southwest 374 430 45,000  Level Indianapolis Center
Sat 06:05:23 PM 39.2475 -87.9464 229° Southwest 375 432 45,000  Level Indianapolis Center
Sat 06:06:24 PM 39.1792 -88.0489 229° Southwest 375 432 45,000  Level Indianapolis Center
Sat 06:07:26 PM 39.1111 -88.1519 230° Southwest 376 433 45,000  Level Indianapolis Center
Sat 06:08:27 PM 39.0406 -88.2575 229° Southwest 382 440 45,000  Level Indianapolis Center
Sat 06:09:29 PM 38.9686 -88.3619 228° Southwest 387 445 45,000  Level Indianapolis Center
Sat 06:10:30 PM 38.8986 -88.4667 229° Southwest 387 445 45,000  Level Indianapolis Center
Sat 06:11:31 PM 38.8283 -88.5708 229° Southwest 386 444 45,000  Level Indianapolis Center
Sat 06:12:37 PM 38.7533 -88.6806 229° Southwest 383 441 45,000  Level Kansas City Center
Sat 06:13:39 PM 38.6844 -88.7822 229° Southwest 380 437 45,000  Level Kansas City Center
Sat 06:14:40 PM 38.6042 -88.8994 229° Southwest 376 433 45,000  Level Kansas City Center
Sat 06:15:42 PM 38.5333 -89.0042 229° Southwest 364 419 45,000  Level Kansas City Center
Sat 06:16:44 PM 38.4672 -89.1017 229° Southwest 363 418 45,000  Level Kansas City Center
Sat 06:17:45 PM 38.4000 -89.1978 228° Southwest 362 417 45,000  Level Kansas City Center
Sat 06:18:47 PM 38.3361 -89.2903 229° Southwest 365 420 45,000  Level Kansas City Center
Sat 06:19:48 PM 38.2672 -89.3894 229° Southwest 371 427 45,000  Level Kansas City Center
Sat 06:20:50 PM 38.1983 -89.4886 229° Southwest 373 429 45,000  Level Kansas City Center
Sat 06:21:51 PM 38.1300 -89.5869 229° Southwest 371 427 45,000  Level Kansas City Center
Sat 06:22:53 PM 38.0469 -89.7042 228° Southwest 370 426 45,000  Level Kansas City Center
Sat 06:23:54 PM 37.9789 -89.8014 228° Southwest 369 425 45,000  Level Kansas City Center
Sat 06:24:56 PM 37.9092 -89.9006 228° Southwest 374 430 45,000  Level Kansas City Center
Sat 06:25:57 PM 37.8394 -89.9989 228° Southwest 377 434 45,000  Level Kansas City Center
Sat 06:26:59 PM 37.7683 -90.0994 228° Southwest 380 437 45,000  Level Kansas City Center
Sat 06:28:00 PM 37.6983 -90.1986 228° Southwest 380 437 45,000  Level Kansas City Center
Sat 06:29:02 PM 37.6347 -90.3025 232° Southwest 374 430 45,000  Level Kansas City Center
Sat 06:30:03 PM 37.5781 -90.4108 237° Southwest 371 427 45,000  Level Kansas City Center
Sat 06:31:05 PM 37.5206 -90.5172 236° Southwest 367 422 45,000  Level Kansas City Center
Sat 06:32:06 PM 37.4639 -90.6256 237° Southwest 369 425 45,000  Level Kansas City Center
Sat 06:33:08 PM 37.3953 -90.7511 236° Southwest 366 421 45,000  Level Kansas City Center
Sat 06:34:09 PM 37.3392 -90.8519 235° Southwest 367 422 45,000  Level Kansas City Center
Sat 06:35:11 PM 37.2844 -90.9581 237° Southwest 364 419 45,000  Level Kansas City Center
Sat 06:36:12 PM 37.2247 -91.0661 235° Southwest 367 422 45,000  Level Kansas City Center
Sat 06:37:14 PM 37.1631 -91.1761 235° Southwest 375 432 45,000  Level Kansas City Center
Sat 06:38:15 PM 37.1050 -91.2842 236° Southwest 373 429 45,000  Level Kansas City Center
Sat 06:39:17 PM 37.0467 -91.3886 235° Southwest 367 422 45,000  Level Kansas City Center
Sat 06:40:18 PM 36.9750 -91.5172 235° Southwest 370 426 45,000  Level Kansas City Center
Sat 06:41:19 PM 36.9142 -91.6278 235° Southwest 378 435 45,000  Level Kansas City Center
Sat 06:42:21 PM 36.8536 -91.7375 235° Southwest 381 438 45,000  Level Kansas City Center
Sat 06:43:22 PM 36.7908 -91.8514 235° Southwest 389 448 45,000  Level Kansas City Center
Sat 06:44:24 PM 36.7306 -91.9606 235° Southwest 384 442 45,000  Level Kansas City Center
Sat 06:45:25 PM 36.6692 -92.0678 235° Southwest 381 438 45,000  Level Kansas City Center
Sat 06:46:26 PM 36.6081 -92.1783 235° Southwest 381 438 45,000  Level Kansas City Center
Sat 06:47:28 PM 36.5444 -92.2922 235° Southwest 383 441 45,000  Level Kansas City Center
Sat 06:48:29 PM 36.4825 -92.3978 234° Southwest 381 438 45,000  Level Kansas City Center
Sat 06:49:31 PM 36.4219 -92.5064 235° Southwest 381 438 45,000  Level Kansas City Center
Sat 06:50:32 PM 36.3597 -92.6119 234° Southwest 380 437 45,000  Level Kansas City Center
Sat 06:51:53 PM 36.2739 -92.7619 235° Southwest 382 440 45,000  Level Memphis Center
Sat 06:52:54 PM 36.2128 -92.8675 234° Southwest 381 438 45,000  Level Memphis Center
Sat 06:53:55 PM 36.1533 -92.9714 235° Southwest 377 434 45,000  Level Memphis Center
Sat 06:54:57 PM 36.0917 -93.0769 234° Southwest 377 434 45,000  Level Memphis Center
Sat 06:55:58 PM 36.0319 -93.1803 234° Southwest 375 432 45,000  Level Memphis Center
Sat 06:56:59 PM 35.9592 -93.3050 234° Southwest 375 432 45,000  Level Memphis Center
Sat 06:58:01 PM 35.8981 -93.4092 234° Southwest 377 434 45,000  Level Memphis Center
Sat 06:59:02 PM 35.8369 -93.5147 234° Southwest 379 436 45,000  Level Memphis Center
Sat 07:00:03 PM 35.7744 -93.6208 234° Southwest 383 441 45,000  Level Memphis Center
Sat 07:01:05 PM 35.7117 -93.7275 234° Southwest 385 443 45,000  Level Memphis Center
Sat 07:02:06 PM 35.6486 -93.8347 234° Southwest 387 445 45,000  Level Memphis Center
Sat 07:03:07 PM 35.5853 -93.9417 234° Southwest 389 448 45,000  Level Memphis Center
Sat 07:04:09 PM 35.5233 -94.0469 234° Southwest 386 444 45,000  Level Memphis Center
Sat 07:05:10 PM 35.4453 -94.1769 234° Southwest 390 449 45,000  Level Memphis Center
Sat 07:06:11 PM 35.3778 -94.2844 232° Southwest 397 457 45,000  Level Memphis Center
Sat 07:07:13 PM 35.2917 -94.3761 221° Southwest 407 468 45,000  Level Memphis Center
Sat 07:08:14 PM 35.2078 -94.4675 222° Southwest 407 468 45,000  Level Memphis Center
Sat 07:09:16 PM 35.1236 -94.5592 222° Southwest 406 467 45,000 -50 Level Memphis Center
Sat 07:10:15 PM 35.0417 -94.6464 221° Southwest 400 460 44,900  Descending Fort Worth Center
Sat 07:11:16 PM 34.9575 -94.7375 222° Southwest 402 463 45,000 49 Climbing Fort Worth Center
Sat 07:12:17 PM 34.8703 -94.8336 222° Southwest 403 464 45,000  Level Fort Worth Center
Sat 07:13:19 PM 34.7867 -94.9233 221° Southwest 403 464 45,000 -829 Level Fort Worth Center
Sat 07:14:20 PM 34.6825 -94.9872 207° Southwest 449 517 43,300 -1,756 Descending Fort Worth Center
Sat 07:15:22 PM 34.5547 -94.9747 175° South 464 534 41,400 -2,146 Descending Fort Worth Center
Sat 07:16:23 PM 34.4044 -94.9572 175° South 454 522 38,900 -2,146 Descending Fort Worth Center
Sat 07:17:25 PM 34.2861 -94.9561 180° South 438 504 37,000 -927 Descending Fort Worth Center
Sat 07:18:26 PM 34.1897 -95.0328 213° Southwest 426 490 37,000 -1,131 Level Fort Worth Center
Sat 07:19:27 PM 34.1161 -95.1406 230° Southwest 423 487 34,700 -2,293 Descending Fort Worth Center
Sat 07:20:29 PM 34.0369 -95.2525 230° Southwest 439 505 32,300 -2,390 Descending Fort Worth Center
Sat 07:21:30 PM 33.9589 -95.3661 230° Southwest 444 511 29,800 -2,634 Descending Fort Worth Center
Sat 07:22:32 PM 33.8769 -95.4814 229° Southwest 455 524 26,900 -2,878 Descending Fort Worth Center
Sat 07:23:33 PM 33.7933 -95.5975 229° Southwest 428 493 23,900 -2,732 Descending Fort Worth Center
Sat 07:24:35 PM 33.7186 -95.7036 230° Southwest 418 481 21,300 -2,488 Descending Fort Worth Center
Sat 07:25:36 PM 33.6433 -95.8078 229° Southwest 414 476 18,800 -2,705 Descending Fort Worth Center
Sat 07:26:37 PM 33.5586 -95.9261 229° Southwest 413 475 15,800 -2,683 Descending Fort Worth Center
Sat 07:27:39 PM 33.4808 -96.0336 229° Southwest 398 458 13,300 -2,390 Descending Fort Worth Center
Sat 07:28:40 PM 33.4100 -96.1300 229° Southwest 388 447 10,900 -1,610 Descending Fort Worth Center
Sat 07:29:42 PM 33.3458 -96.2200 230° Southwest 357 411 10,000 -732 Descending Fort Worth Center
Sat 07:30:43 PM 33.2794 -96.3097 229° Southwest 336 387 9,400 -585 Descending Fort Worth Center
Sat 07:31:45 PM 33.2333 -96.3833 233° Southwest 287 330 8,800 -1,293 Descending Dallas / Fort Worth TRACON
Sat 07:32:39 PM 33.1833 -96.4500 228° Southwest 288 331 6,900 -2,158 Descending Dallas / Fort Worth TRACON
Sat 07:33:39 PM 33.1167 -96.5167 220° Southwest 290 334 4,700 -1,438 Descending Dallas / Fort Worth TRACON
Sat 07:34:40 PM 33.0500 -96.5667 212° Southwest 289 333 4,000 -350 Descending Dallas / Fort Worth TRACON
Sat 07:35:39 PM 32.9833 -96.6167 212° Southwest 295 339 4,000 -458 Level Dallas / Fort Worth TRACON
Sat 07:36:51 PM 32.9042 -96.6756 212° Southwest 282 325 3,000 -476 Descending Fort Worth Center
Sat 07:37:45 PM 32.8500 -96.7167 213° Southwest 213 245 3,000 -263 Level Dallas / Fort Worth TRACON
Sat 07:38:45 PM 32.8000 -96.7333 196° South 187 215 2,500 -650 Descending Dallas / Fort Worth TRACON
Sat 07:39:45 PM 32.8000 -96.7833 270° West 147 169 1,700 -750 Descending Dallas / Fort Worth TRACON
Sat 07:40:45 PM 32.8167 -96.8167 301° West 131 151 1,000 -700 Descending Dallas / Fort Worth TRACON
Sat 07:43:00 PM 32.8333 -96.8500 228° Southwest  Level FlightAware Approximate

Login

Don't have an account? Register now (free) for customized features, flight alerts, and more!